createdAt,value
2023-03-18T00:01:53.285Z,100387.16
2023-03-18T00:04:22.611Z,100386.34
2023-03-18T00:06:50.546Z,100383.03
2023-03-18T00:09:18.706Z,100394.66
2023-03-18T00:11:47.205Z,100384.88
2023-03-18T00:14:15.539Z,100373.06
2023-03-18T00:16:43.647Z,100378.47
2023-03-18T00:19:11.621Z,100377.66
2023-03-18T00:21:40.903Z,100370.38
2023-03-18T00:24:09.802Z,100371.19
2023-03-18T00:26:37.815Z,100368.50
2023-03-18T00:29:05.822Z,100367.66
2023-03-18T00:31:33.910Z,100364.97
2023-03-18T00:34:02.140Z,100364.97
2023-03-18T00:36:31.043Z,100363.09
2023-03-18T00:39:03.348Z,100359.78
2023-03-18T00:41:33.172Z,100360.59
2023-03-18T00:44:01.820Z,100350.84
2023-03-18T00:46:31.425Z,100349.22
2023-03-18T00:49:00.672Z,100341.31
2023-03-18T00:51:47.634Z,100340.50
2023-03-18T00:54:18.727Z,100336.13
2023-03-18T00:56:46.956Z,100331.78
2023-03-18T00:59:14.930Z,100338.22
2023-03-18T01:01:42.855Z,100328.47
2023-03-18T01:04:11.573Z,100327.44
2023-03-18T01:06:40.160Z,100329.50
2023-03-18T01:09:09.065Z,100331.16
2023-03-18T01:11:38.704Z,100324.13
2023-03-18T01:14:06.727Z,100333.25
2023-03-18T01:16:34.828Z,100323.50
2023-03-18T01:19:04.470Z,100318.94
2023-03-18T01:21:32.804Z,100319.97
2023-03-18T01:24:01.638Z,100312.91
2023-03-18T01:26:29.710Z,100313.75
2023-03-18T01:28:59.452Z,100312.91
2023-03-18T01:31:27.618Z,100313.75
2023-03-18T01:33:56.211Z,100312.91
2023-03-18T01:36:25.227Z,100315.59
2023-03-18T01:38:53.162Z,100313.75
2023-03-18T01:41:21.095Z,100310.22
2023-03-18T01:43:49.810Z,100300.28
2023-03-18T01:46:36.297Z,100302.97
2023-03-18T01:49:06.298Z,100293.19
2023-03-18T01:51:34.194Z,100298.59
2023-03-18T01:54:04.198Z,100295.91
2023-03-18T01:56:32.571Z,100299.66
2023-03-18T01:59:00.427Z,100302.34
2023-03-18T02:01:31.039Z,100298.00
2023-03-18T02:04:01.081Z,100293.63
2023-03-18T02:06:29.535Z,100284.72
2023-03-18T02:08:57.774Z,100286.59
2023-03-18T02:13:53.296Z,100278.94
2023-03-18T02:16:22.820Z,100280.56
2023-03-18T02:18:52.291Z,100276.44
2023-03-18T02:21:42.554Z,100278.94
2023-03-18T02:24:22.985Z,100278.94
2023-03-18T02:26:53.379Z,100283.72
2023-03-18T02:29:22.983Z,100282.88
2023-03-18T02:31:51.102Z,100280.19
2023-03-18T02:34:19.392Z,100284.72
2023-03-18T02:36:47.654Z,100289.31
2023-03-18T02:39:16.222Z,100283.91
2023-03-18T02:41:44.915Z,100280.59
2023-03-18T02:44:12.902Z,100281.44
2023-03-18T02:46:46.502Z,100284.13
2023-03-18T02:49:14.446Z,100278.75
2023-03-18T02:51:42.370Z,100270.66
2023-03-18T02:54:12.023Z,100272.28
2023-03-18T02:59:07.836Z,100270.66
2023-03-18T03:01:36.647Z,100270.66
2023-03-18T03:06:35.038Z,100270.66
2023-03-18T03:09:02.981Z,100265.25
2023-03-18T03:11:31.297Z,100258.19
2023-03-18T03:13:59.322Z,100253.84
2023-03-18T03:16:28.315Z,100261.31
2023-03-18T03:18:56.249Z,100261.31
2023-03-18T03:21:25.613Z,100268.59
2023-03-18T03:23:54.546Z,100262.38
2023-03-18T03:26:22.639Z,100266.09
2023-03-18T03:28:51.049Z,100270.47
2023-03-18T03:31:19.146Z,100272.53
2023-03-18T03:33:47.816Z,100267.34
2023-03-18T03:36:17.175Z,100261.13
2023-03-18T03:38:46.751Z,100274.41
2023-03-18T03:41:15.923Z,100268.41
2023-03-18T03:43:44.825Z,100269.44
2023-03-18T03:46:12.947Z,100269.44
2023-03-18T03:48:41.086Z,100271.28
2023-03-18T03:51:09.081Z,100268.59
2023-03-18T03:53:37.194Z,100276.91
2023-03-18T03:56:09.241Z,100268.81
2023-03-18T03:58:37.354Z,100266.13
2023-03-18T04:01:06.588Z,100272.34
2023-03-18T04:03:34.908Z,100278.56
2023-03-18T04:06:02.990Z,100276.91
2023-03-18T04:08:31.794Z,100271.28
2023-03-18T04:10:59.756Z,100279.38
2023-03-18T04:13:29.115Z,100272.97
2023-03-18T04:15:57.058Z,100279.38
2023-03-18T04:18:26.011Z,100277.75
2023-03-18T04:20:54.231Z,100280.44
2023-03-18T04:23:22.180Z,100282.06
2023-03-18T04:25:50.137Z,100279.63
2023-03-18T04:28:18.087Z,100291.41
2023-03-18T04:30:48.829Z,100283.34
2023-03-18T04:33:16.792Z,100285.22
2023-03-18T04:36:02.944Z,100286.25
2023-03-18T04:38:30.972Z,100289.97
2023-03-18T04:40:58.924Z,100291.84
2023-03-18T04:43:27.007Z,100287.28
2023-03-18T04:45:56.684Z,100286.69
2023-03-18T04:48:24.618Z,100290.22
2023-03-18T04:50:52.500Z,100294.78
2023-03-18T04:53:20.619Z,100290.41
2023-03-18T04:55:50.677Z,100301.19
2023-03-18T04:58:18.647Z,100298.50
2023-03-18T05:00:46.954Z,100301.19
2023-03-18T05:03:16.357Z,100301.38
2023-03-18T05:05:44.306Z,100303.88
2023-03-18T05:08:12.899Z,100303.25
2023-03-18T05:10:41.470Z,100311.34
2023-03-18T05:13:09.591Z,100312.16
2023-03-18T05:15:37.649Z,100301.59
2023-03-18T05:18:05.828Z,100312.38
2023-03-18T05:20:36.070Z,100318.81
2023-03-18T05:23:04.332Z,100325.03
2023-03-18T05:25:32.493Z,100324.19
2023-03-18T05:28:00.738Z,100325.03
2023-03-18T05:30:28.707Z,100325.03
2023-03-18T05:32:56.769Z,100330.41
2023-03-18T05:35:25.015Z,100333.31
2023-03-18T05:37:54.450Z,100335.00
2023-03-18T05:40:22.426Z,100338.69
2023-03-18T05:42:56.330Z,100334.16
2023-03-18T05:45:24.785Z,100336.63
2023-03-18T05:47:52.974Z,100333.53
2023-03-18T05:50:30.054Z,100333.13
2023-03-18T05:52:59.430Z,100335.81
2023-03-18T05:55:28.222Z,100331.28
2023-03-18T05:57:56.343Z,100344.53
2023-03-18T06:00:25.318Z,100347.84
2023-03-18T06:02:54.108Z,100340.38
2023-03-18T06:05:22.312Z,100334.75
2023-03-18T06:07:50.351Z,100347.00
2023-03-18T06:10:19.916Z,100344.31
2023-03-18T06:12:47.872Z,100349.25
2023-03-18T06:15:15.901Z,100350.31
2023-03-18T06:17:43.950Z,100355.72
2023-03-18T06:20:14.312Z,100363.81
2023-03-18T06:22:43.746Z,100352.81
2023-03-18T06:25:11.874Z,100355.28
2023-03-18T06:27:41.242Z,100364.44
2023-03-18T06:30:10.560Z,100364.44
2023-03-18T06:32:38.522Z,100364.44
2023-03-18T06:35:07.478Z,100362.34
2023-03-18T06:37:35.435Z,100368.34
2023-03-18T06:42:31.864Z,100361.09
2023-03-18T06:45:01.517Z,100375.19
2023-03-18T06:47:29.706Z,100370.66
2023-03-18T06:49:57.820Z,100373.34
2023-03-18T06:52:25.962Z,100370.66
2023-03-18T06:54:53.964Z,100365.63
2023-03-18T06:57:21.927Z,100376.81
2023-03-18T06:59:50.743Z,100371.00
2023-03-18T07:02:20.004Z,100372.69
2023-03-18T07:04:48.323Z,100369.97
2023-03-18T07:07:16.690Z,100370.59
2023-03-18T07:09:45.360Z,100369.56
2023-03-18T07:12:14.752Z,100371.19
2023-03-18T07:14:43.119Z,100376.41
2023-03-18T07:17:11.464Z,100375.16
2023-03-18T07:19:40.873Z,100379.47
2023-03-18T07:22:08.886Z,100371.38
2023-03-18T07:24:37.616Z,100376.78
2023-03-18T07:27:06.881Z,100383.03
2023-03-18T07:29:34.902Z,100379.47
2023-03-18T07:32:04.120Z,100381.75
2023-03-18T07:34:32.876Z,100385.31
2023-03-18T07:37:02.416Z,100381.34
2023-03-18T07:39:30.341Z,100382.19
2023-03-18T07:41:58.252Z,100383.63
2023-03-18T07:44:26.220Z,100380.94
2023-03-18T07:46:54.332Z,100386.31
2023-03-18T07:49:23.910Z,100389.66
2023-03-18T07:51:52.366Z,100384.84
2023-03-18T07:54:21.763Z,100391.69
2023-03-18T07:56:49.887Z,100394.19
2023-03-18T07:59:18.765Z,100386.91
2023-03-18T08:01:46.817Z,100390.22
2023-03-18T08:04:14.894Z,100394.38
2023-03-18T08:06:43.306Z,100395.19
2023-03-18T08:09:11.313Z,100388.75
2023-03-18T08:11:40.614Z,100389.16
2023-03-18T08:14:08.598Z,100395.19
2023-03-18T08:16:36.663Z,100404.94
2023-03-18T08:19:04.814Z,100394.94
2023-03-18T08:21:32.815Z,100396.44
2023-03-18T08:24:00.759Z,100397.03
2023-03-18T08:26:28.649Z,100402.22
2023-03-18T08:28:58.059Z,100399.31
2023-03-18T08:31:25.950Z,100400.13
2023-03-18T08:33:55.898Z,100400.75
2023-03-18T08:36:23.947Z,100402.19
2023-03-18T08:38:52.009Z,100395.75
2023-03-18T08:41:20.014Z,100393.91
2023-03-18T08:43:48.208Z,100393.66
2023-03-18T08:46:17.937Z,100407.78
2023-03-18T08:48:46.278Z,100402.16
2023-03-18T08:51:14.832Z,100408.16
2023-03-18T08:53:42.925Z,100400.69
2023-03-18T08:56:11.248Z,100405.88
2023-03-18T08:58:39.113Z,100402.13
2023-03-18T09:01:09.081Z,100407.34
2023-03-18T09:03:40.122Z,100394.66
2023-03-18T09:09:48.876Z,100399.63
2023-03-18T09:12:18.015Z,100392.34
2023-03-18T09:14:47.489Z,100397.53
2023-03-18T09:17:15.805Z,100404.56
2023-03-18T09:19:45.421Z,100392.72
2023-03-18T09:22:13.445Z,100401.44
2023-03-18T09:24:41.700Z,100397.72
2023-03-18T09:27:09.694Z,100403.13
2023-03-18T09:29:37.808Z,100393.94
2023-03-18T09:32:06.033Z,100399.97
2023-03-18T09:34:33.932Z,100402.44
2023-03-18T09:37:03.324Z,100406.81
2023-03-18T09:39:31.310Z,100405.75
2023-03-18T09:42:08.288Z,100387.66
2023-03-18T09:44:36.825Z,100402.63
2023-03-18T09:47:19.773Z,100404.28
2023-03-18T09:49:57.425Z,100408.44
2023-03-18T09:52:28.343Z,100406.13
2023-03-18T09:54:58.898Z,100403.22
2023-03-18T09:57:28.866Z,100399.25
2023-03-18T09:59:59.983Z,100402.78
2023-03-18T10:02:31.018Z,100400.69
2023-03-18T10:05:00.036Z,100398.81
2023-03-18T10:07:32.598Z,100406.69
2023-03-18T10:10:01.924Z,100415.41
2023-03-18T10:12:32.639Z,100406.22
2023-03-18T10:15:08.722Z,100405.22
2023-03-18T10:17:38.918Z,100409.56
2023-03-18T10:20:15.266Z,100409.13
2023-03-18T10:23:01.214Z,100409.97
2023-03-18T10:25:33.478Z,100413.25
2023-03-18T10:28:33.472Z,100405.38
2023-03-18T10:31:07.186Z,100402.44
2023-03-18T10:33:38.358Z,100406.63
2023-03-18T10:36:07.782Z,100406.41
2023-03-18T10:38:38.308Z,100402.03
2023-03-18T10:41:10.357Z,100407.84
2023-03-18T10:43:38.356Z,100409.50
2023-03-18T10:46:07.425Z,100400.34
2023-03-18T10:48:36.190Z,100399.28
2023-03-18T10:51:24.748Z,100398.03
2023-03-18T10:53:57.001Z,100398.84
2023-03-18T10:56:25.141Z,100394.06
2023-03-18T10:58:53.698Z,100394.66
2023-03-18T11:01:23.349Z,100380.91
2023-03-18T11:03:52.953Z,100387.16
2023-03-18T11:06:22.571Z,100398.56
2023-03-18T11:08:50.580Z,100382.34
2023-03-18T11:11:27.070Z,100383.16
2023-03-18T11:13:55.926Z,100376.72
2023-03-18T11:16:29.298Z,100367.19
2023-03-18T11:18:57.335Z,100372.59
2023-03-18T11:21:25.806Z,100366.81
2023-03-18T11:24:10.467Z,100366.19
2023-03-18T11:26:54.511Z,100374.53
2023-03-18T11:29:24.176Z,100356.66
2023-03-18T11:31:58.273Z,100363.09
2023-03-18T11:34:26.664Z,100359.81
2023-03-18T12:01:56.881Z,100343.41
2023-03-18T12:04:42.732Z,100328.03
2023-03-18T13:04:07.193Z,100312.25
2023-03-18T13:14:12.747Z,100303.72
2023-03-18T13:16:41.348Z,100298.53
2023-03-18T13:19:11.079Z,100303.72
2023-03-18T13:21:42.182Z,100302.69
2023-03-18T13:24:38.916Z,100291.88
2023-03-18T13:27:17.853Z,100293.50
2023-03-18T13:29:48.493Z,100286.22
2023-03-18T13:32:31.995Z,100302.25
2023-03-18T13:35:25.934Z,100298.91
2023-03-18T13:38:17.459Z,100296.03
2023-03-18T13:41:02.140Z,100288.75
2023-03-18T13:43:30.216Z,100290.63
2023-03-18T13:45:58.357Z,100285.22
2023-03-18T13:48:29.010Z,100285.00
2023-03-18T13:50:58.928Z,100280.66
2023-03-18T13:53:27.922Z,100292.28
2023-03-18T13:56:02.705Z,100283.09
2023-03-18T13:58:31.385Z,100290.19
2023-03-18T14:01:33.006Z,100291.00
2023-03-18T14:04:02.989Z,100283.97
2023-03-18T14:06:59.597Z,100281.25
2023-03-18T14:09:37.584Z,100285.59
2023-03-18T14:12:18.860Z,100276.44
2023-03-18T14:15:06.034Z,100274.34
2023-03-18T14:17:42.990Z,100267.28
2023-03-18T14:20:39.137Z,100274.34
2023-03-18T14:23:39.258Z,100268.72
2023-03-18T14:26:23.519Z,100271.44
2023-03-18T14:28:56.311Z,100277.44
2023-03-18T14:31:34.291Z,100271.78
2023-03-18T14:34:21.270Z,100282.16
2023-03-18T14:37:18.909Z,100277.97
2023-03-18T14:39:48.928Z,100276.47
2023-03-18T14:42:32.215Z,100277.06
2023-03-18T14:45:04.682Z,100276.41
2023-03-18T14:47:40.265Z,100278.91
2023-03-18T14:50:14.221Z,100274.47
2023-03-18T14:52:43.201Z,100267.31
2023-03-18T14:55:17.300Z,100279.13
2023-03-18T14:57:46.387Z,100272.19
2023-03-18T15:00:16.430Z,100269.63
2023-03-18T15:02:44.647Z,100259.22
2023-03-18T15:05:13.515Z,100271.78
2023-03-18T15:07:42.199Z,100266.88
2023-03-18T15:10:11.903Z,100274.69
2023-03-18T15:12:41.346Z,100274.38
2023-03-18T15:15:14.296Z,100271.34
2023-03-18T15:17:42.526Z,100261.72
2023-03-18T15:20:13.845Z,100271.81
2023-03-18T15:22:41.947Z,100266.78
2023-03-18T15:25:16.731Z,100266.34
2023-03-18T15:27:46.825Z,100266.34
2023-03-18T15:30:25.321Z,100259.03
2023-03-18T15:32:54.305Z,100264.69
2023-03-18T15:35:25.001Z,100266.78
2023-03-18T15:38:05.577Z,100258.28
2023-03-18T15:40:35.336Z,100263.94
2023-03-18T15:43:17.298Z,100270.03
2023-03-18T15:45:47.100Z,100275.72
2023-03-18T15:48:21.614Z,100262.03
2023-03-18T15:50:54.105Z,100275.66
2023-03-18T15:53:23.535Z,100271.97
2023-03-18T15:55:52.853Z,100276.63
2023-03-18T15:58:24.590Z,100279.06
2023-03-18T16:00:52.814Z,100274.16
2023-03-18T16:03:23.310Z,100274.22
2023-03-18T16:05:51.532Z,100277.22
2023-03-18T16:08:20.401Z,100275.66
2023-03-18T16:10:48.933Z,100274.06
2023-03-18T16:13:25.829Z,100281.19
2023-03-18T16:15:54.067Z,100283.75
2023-03-18T16:18:22.236Z,100290.88
2023-03-18T16:20:50.516Z,100284.28
2023-03-18T16:23:18.915Z,100288.47
2023-03-18T16:25:48.107Z,100295.97
2023-03-18T16:28:21.339Z,100289.38
2023-03-18T16:30:52.266Z,100288.94
2023-03-18T16:33:20.725Z,100292.31
2023-03-18T16:35:52.388Z,100299.00
2023-03-18T16:38:20.893Z,100298.59
2023-03-18T16:40:49.080Z,100301.13
2023-03-18T16:43:21.950Z,100301.56
2023-03-18T16:45:51.761Z,100304.09
2023-03-18T16:48:20.516Z,100305.38
2023-03-18T16:50:50.080Z,100303.09
2023-03-18T16:53:21.446Z,100306.47
2023-03-18T16:55:50.715Z,100307.50
2023-03-18T16:58:20.342Z,100302.75
2023-03-18T17:00:49.843Z,100303.00
2023-03-18T17:03:19.560Z,100303.19
2023-03-18T17:05:50.297Z,100309.88
2023-03-18T17:08:19.043Z,100313.81
2023-03-18T17:10:48.176Z,100317.59
2023-03-18T17:13:19.116Z,100309.69
2023-03-18T17:15:47.078Z,100318.22
2023-03-18T17:18:16.257Z,100314.09
2023-03-18T17:20:45.849Z,100313.47
2023-03-18T17:23:17.122Z,100313.91
2023-03-18T17:25:48.061Z,100318.50
2023-03-18T17:28:20.307Z,100329.50
2023-03-18T17:30:48.266Z,100329.50
2023-03-18T17:33:27.158Z,100335.13
2023-03-18T17:35:56.569Z,100322.66
2023-03-18T17:38:24.749Z,100331.81
2023-03-18T17:40:52.758Z,100318.53
2023-03-18T17:43:24.108Z,100326.84
2023-03-18T17:45:52.086Z,100333.28
2023-03-18T17:48:21.610Z,100330.81
2023-03-18T17:50:50.236Z,100334.75
2023-03-18T17:53:25.211Z,100336.81
2023-03-18T17:55:53.708Z,100336.44
2023-03-18T17:58:22.456Z,100337.69
2023-03-18T18:00:51.766Z,100336.88
2023-03-18T18:03:22.081Z,100336.44
2023-03-18T18:05:50.198Z,100344.78
2023-03-18T18:08:19.931Z,100350.59
2023-03-18T18:10:49.459Z,100358.91
2023-03-18T18:13:20.134Z,100349.16
2023-03-18T18:15:48.246Z,100353.94
2023-03-18T18:18:23.961Z,100356.00
2023-03-18T18:20:57.085Z,100352.69
2023-03-18T18:23:30.013Z,100368.88
2023-03-18T18:26:00.400Z,100357.69
2023-03-18T18:28:33.143Z,100360.59
2023-03-18T18:31:02.092Z,100358.94
2023-03-18T18:33:30.428Z,100369.75
2023-03-18T18:35:58.439Z,100362.09
2023-03-18T18:38:27.377Z,100361.03
2023-03-18T18:40:56.671Z,100366.22
2023-03-18T18:43:26.376Z,100358.94
2023-03-18T18:45:55.005Z,100368.91
2023-03-18T18:48:25.389Z,100361.84
2023-03-18T18:50:53.440Z,100368.31
2023-03-18T18:53:24.134Z,100361.25
2023-03-18T18:55:52.852Z,100363.97
2023-03-18T18:58:22.060Z,100366.03
2023-03-18T19:00:51.912Z,100370.59
2023-03-18T19:03:21.068Z,100366.47
2023-03-18T19:05:51.076Z,100376.41
2023-03-18T19:08:25.690Z,100388.44
2023-03-18T19:10:54.176Z,100377.06
2023-03-18T19:13:22.245Z,100381.63
2023-03-18T19:15:52.538Z,100388.47
2023-03-18T19:18:21.192Z,100379.56
2023-03-18T19:20:49.461Z,100391.38
2023-03-18T19:23:17.918Z,100376.44
2023-03-18T19:25:46.414Z,100380.19
2023-03-18T19:28:20.958Z,100378.53
2023-03-18T19:30:49.443Z,100386.00
2023-03-18T19:33:18.790Z,100373.53
2023-03-18T19:35:47.517Z,100385.38
2023-03-18T19:38:17.116Z,100373.13
2023-03-18T19:40:45.138Z,100379.34
2023-03-18T19:43:21.579Z,100383.09
2023-03-18T19:45:51.483Z,100387.88
2023-03-18T19:48:23.673Z,100380.84
2023-03-18T19:50:51.899Z,100385.41
2023-03-18T19:53:19.859Z,100387.06
2023-03-18T19:55:48.508Z,100388.69
2023-03-18T19:58:20.848Z,100390.56
2023-03-18T20:00:48.929Z,100380.59
2023-03-18T20:03:17.476Z,100384.56
2023-03-18T20:05:46.863Z,100376.25
2023-03-18T20:08:14.915Z,100389.75
2023-03-18T20:10:43.217Z,100372.75
2023-03-18T20:13:14.867Z,100390.56
2023-03-18T20:15:43.637Z,100382.47
2023-03-18T20:18:15.164Z,100386.22
2023-03-18T20:20:43.473Z,100392.25
2023-03-18T20:23:14.700Z,100379.78
2023-03-18T20:25:46.188Z,100381.47
2023-03-18T20:28:15.442Z,100377.09
2023-03-18T20:30:43.521Z,100381.47
2023-03-18T20:33:11.849Z,100376.06
2023-03-18T20:35:40.609Z,100378.75
2023-03-18T20:38:13.477Z,100370.66
2023-03-18T20:40:43.172Z,100377.09
2023-03-18T20:43:13.574Z,100367.34
2023-03-18T20:45:41.689Z,100369.00
2023-03-18T20:48:09.808Z,100371.69
2023-03-18T20:50:37.935Z,100366.31
2023-03-18T20:53:08.486Z,100370.66
2023-03-18T20:55:36.842Z,100369.63
2023-03-18T20:58:07.449Z,100359.88
2023-03-18T21:00:35.450Z,100366.91
2023-03-18T21:03:03.516Z,100369.63
2023-03-18T21:05:31.741Z,100365.28
2023-03-18T21:07:59.894Z,100366.91
2023-03-18T21:10:28.382Z,100367.56
2023-03-18T21:12:56.475Z,100364.84
2023-03-18T21:15:26.455Z,100366.50
2023-03-18T21:17:54.478Z,100365.69
2023-03-18T21:20:23.235Z,100363.81
2023-03-18T21:22:51.468Z,100351.97
2023-03-18T21:25:20.641Z,100348.44
2023-03-18T21:27:48.666Z,100351.97
2023-03-18T21:30:18.013Z,100351.97
2023-03-18T21:32:47.586Z,100341.19
2023-03-18T21:35:17.982Z,100338.47
2023-03-18T21:37:55.145Z,100348.25
2023-03-18T21:40:24.157Z,100347.19
2023-03-18T21:42:52.218Z,100338.28
2023-03-18T21:45:21.524Z,100345.56
2023-03-18T21:47:52.530Z,100343.69
2023-03-18T21:50:21.939Z,100335.78
2023-03-18T21:52:49.887Z,100329.78
2023-03-18T21:55:17.946Z,100336.63
2023-03-18T21:57:48.695Z,100334.13
2023-03-18T22:00:20.037Z,100331.44
2023-03-18T22:02:48.164Z,100335.19
2023-03-18T22:05:18.978Z,100332.50
2023-03-18T22:07:47.045Z,100344.94
2023-03-18T22:10:16.268Z,100342.22
2023-03-18T22:12:44.332Z,100341.41
2023-03-18T22:15:34.062Z,100334.97
2023-03-18T22:18:02.232Z,100332.50
2023-03-18T22:20:31.680Z,100331.44
2023-03-18T22:22:59.662Z,100335.78
2023-03-18T22:25:29.965Z,100339.53
2023-03-18T22:27:58.075Z,100325.22
2023-03-18T22:30:26.611Z,100329.56
2023-03-18T22:32:54.619Z,100331.25
2023-03-18T22:35:23.605Z,100326.66
2023-03-18T22:38:00.675Z,100322.09
2023-03-18T22:40:29.684Z,100321.28
2023-03-18T22:42:58.550Z,100319.59
2023-03-18T22:45:27.754Z,100325.84
2023-03-18T22:47:56.772Z,100327.50
2023-03-18T22:50:25.152Z,100329.56
2023-03-18T22:52:56.747Z,100334.13
2023-03-18T22:55:27.328Z,100330.63
2023-03-18T22:57:55.303Z,100321.69
2023-03-18T23:00:25.857Z,100324.59
2023-03-18T23:02:54.894Z,100315.50
2023-03-18T23:05:23.627Z,100320.03
2023-03-18T23:07:54.653Z,100315.69
2023-03-18T23:10:22.705Z,100317.56
2023-03-18T23:12:52.142Z,100317.56
2023-03-18T23:15:21.282Z,100310.28
2023-03-18T23:17:49.324Z,100306.78
2023-03-18T23:20:33.004Z,100302.41
2023-03-18T23:23:02.970Z,100306.97
2023-03-18T23:25:31.057Z,100298.88
2023-03-18T23:28:00.660Z,100291.84
2023-03-18T23:30:28.551Z,100298.88
2023-03-18T23:32:56.994Z,100301.56
2023-03-18T23:35:25.160Z,100295.56
2023-03-18T23:37:53.291Z,100291.84
2023-03-18T23:40:21.199Z,100283.53
2023-03-18T23:42:49.182Z,100277.31
2023-03-18T23:45:18.801Z,100281.88
2023-03-18T23:47:47.345Z,100269.22
2023-03-18T23:50:15.326Z,100273.59
2023-03-18T23:52:43.359Z,100287.28
2023-03-18T23:55:30.496Z,100284.56
2023-03-18T23:57:59.604Z,100289.78
